Time;durP1;ratioP1;P1;durP2;ratioP2;P2;SDS_P1;SDS_P2;PMS_P1;PMS_P2;Temp;Humidity;BMP_temperature;BMP_pressure;BME280_temperature;BME280_humidity;BME280_pressure;Samples;Min_cycle;Max_cycle;Signal;HPM_P1;HPM_P2
2023/03/25 00:00:21;;;;;;;;;;;18.50;50.70;;;;;;5111653;28;19942;-73
2023/03/25 00:02:48;;;;;;;;;;;18.40;50.70;;;;;;5111130;28;20462;-74
2023/03/25 00:05:14;;;;;;;;;;;18.50;50.80;;;;;;5112833;28;19920;-73
2023/03/25 00:07:40;;;;;;;;;;;18.50;50.80;;;;;;5112934;28;20344;-75
2023/03/25 00:10:06;;;;;;;;;;;18.40;50.80;;;;;;5116789;27;20362;-75
2023/03/25 00:12:32;;;;;;;;;;;18.40;50.80;;;;;;5115706;28;20385;-75
2023/03/25 00:14:58;;;;;;;;;;;18.40;50.90;;;;;;5115363;28;19920;-74
2023/03/25 00:17:27;;;;;;;;;;;18.40;50.90;;;;;;5115520;28;20361;-74
2023/03/25 00:19:54;;;;;;;;;;;18.40;50.90;;;;;;5115523;28;19920;-75
2023/03/25 00:22:20;;;;;;;;;;;18.30;50.90;;;;;;5116692;28;19927;-74
2023/03/25 00:24:46;;;;;;;;;;;18.30;50.90;;;;;;5115462;28;19927;-74
2023/03/25 00:27:13;;;;;;;;;;;18.30;50.90;;;;;;5114986;28;19923;-74
2023/03/25 00:29:40;;;;;;;;;;;18.30;51.00;;;;;;5115437;28;19920;-74
2023/03/25 00:32:05;;;;;;;;;;;18.30;51.00;;;;;;5115185;28;19942;-79
2023/03/25 00:34:33;;;;;;;;;;;18.30;51.00;;;;;;5115303;28;19919;-77
2023/03/25 00:37:01;;;;;;;;;;;18.20;51.00;;;;;;5114954;28;20011;-74
2023/03/25 00:39:27;;;;;;;;;;;18.20;51.00;;;;;;5115129;28;20034;-74
2023/03/25 00:41:53;;;;;;;;;;;18.20;51.00;;;;;;5116138;28;20426;-74
2023/03/25 00:44:18;;;;;;;;;;;18.20;51.00;;;;;;5114831;28;19926;-74
2023/03/25 00:46:45;;;;;;;;;;;18.20;51.00;;;;;;5114343;28;19947;-77
2023/03/25 00:49:11;;;;;;;;;;;18.20;51.00;;;;;;5114584;28;19919;-76
2023/03/25 00:51:37;;;;;;;;;;;18.20;51.10;;;;;;5115006;28;20267;-73
2023/03/25 00:54:02;;;;;;;;;;;18.20;51.10;;;;;;5114828;28;19927;-75
2023/03/25 00:56:28;;;;;;;;;;;18.20;51.10;;;;;;5115907;28;19946;-72
2023/03/25 00:58:55;;;;;;;;;;;18.20;51.20;;;;;;5115792;27;19920;-73
2023/03/25 01:01:22;;;;;;;;;;;18.20;51.20;;;;;;5114495;28;19951;-74
2023/03/25 01:03:48;;;;;;;;;;;18.10;51.10;;;;;;5114376;28;19919;-73
2023/03/25 01:06:14;;;;;;;;;;;18.20;51.20;;;;;;5114597;28;19973;-72
2023/03/25 01:08:41;;;;;;;;;;;18.10;51.20;;;;;;5114325;28;19927;-76
2023/03/25 01:11:15;;;;;;;;;;;18.10;51.20;;;;;;5115980;28;20003;-72
2023/03/25 01:13:40;;;;;;;;;;;18.10;51.20;;;;;;5114550;28;20271;-72
2023/03/25 01:16:06;;;;;;;;;;;18.10;51.20;;;;;;5114425;28;19919;-72
2023/03/25 01:18:36;;;;;;;;;;;18.10;51.20;;;;;;5113887;28;19920;-72
2023/03/25 01:21:03;;;;;;;;;;;18.10;51.20;;;;;;5114191;28;19935;-73
2023/03/25 01:23:29;;;;;;;;;;;18.10;51.20;;;;;;5114329;28;19973;-72
2023/03/25 01:25:54;;;;;;;;;;;18.10;51.30;;;;;;5114124;28;19920;-72
2023/03/25 01:28:20;;;;;;;;;;;18.10;51.40;;;;;;5114382;28;20298;-72
2023/03/25 01:30:48;;;;;;;;;;;18.00;51.30;;;;;;5115120;28;20367;-73
2023/03/25 01:33:13;;;;;;;;;;;18.00;51.30;;;;;;5113880;28;19919;-72
2023/03/25 01:35:39;;;;;;;;;;;18.00;51.20;;;;;;5115007;28;20010;-73
2023/03/25 01:38:05;;;;;;;;;;;18.00;51.30;;;;;;5114128;28;19920;-71
2023/03/25 01:40:30;;;;;;;;;;;18.00;51.30;;;;;;5113724;28;19924;-71
2023/03/25 01:42:56;;;;;;;;;;;18.00;51.30;;;;;;5115001;28;19927;-74
2023/03/25 01:45:24;;;;;;;;;;;18.00;51.30;;;;;;5113547;28;20394;-71
2023/03/25 01:47:53;;;;;;;;;;;18.00;51.30;;;;;;5113405;28;19935;-72
2023/03/25 01:50:19;;;;;;;;;;;18.00;51.30;;;;;;5113748;28;19920;-71
2023/03/25 01:52:49;;;;;;;;;;;18.00;51.40;;;;;;5113821;28;20021;-72
2023/03/25 01:55:22;;;;;;;;;;;18.00;51.40;;;;;;5115212;28;19919;-71
2023/03/25 01:57:53;;;;;;;;;;;18.00;51.40;;;;;;5113701;28;19949;-72
2023/03/25 02:00:19;;;;;;;;;;;18.00;51.50;;;;;;5113302;28;19919;-71
2023/03/25 02:02:45;;;;;;;;;;;17.90;51.40;;;;;;5114804;28;20369;-71
2023/03/25 02:05:16;;;;;;;;;;;17.90;51.40;;;;;;5113543;28;19969;-72
2023/03/25 02:07:45;;;;;;;;;;;17.90;51.40;;;;;;5114553;28;19923;-72
2023/03/25 02:10:11;;;;;;;;;;;17.90;51.40;;;;;;5114459;28;19969;-74
2023/03/25 02:12:37;;;;;;;;;;;17.80;51.40;;;;;;5113158;28;19924;-71
2023/03/25 02:15:04;;;;;;;;;;;17.90;51.50;;;;;;5112969;28;19963;-71
2023/03/25 02:25:53;;;;;;;;;;;17.90;51.50;;;;;;5110329;27;19918;-72
2023/03/25 02:28:39;;;;;;;;;;;17.80;51.50;;;;;;5109330;28;19920;-72
2023/03/25 02:31:27;;;;;;;;;;;17.90;51.60;;;;;;5109149;28;19920;-77
2023/03/25 02:34:08;;;;;;;;;;;17.90;51.60;;;;;;5108839;28;19980;-72
2023/03/25 02:36:55;;;;;;;;;;;17.80;51.50;;;;;;5108752;28;19920;-72
2023/03/25 02:39:27;;;;;;;;;;;17.80;51.60;;;;;;5108856;28;19923;-71
2023/03/25 02:44:39;;;;;;;;;;;17.80;51.60;;;;;;5110297;27;19912;-75
2023/03/25 02:47:07;;;;;;;;;;;17.80;51.60;;;;;;5110348;28;19930;-72
2023/03/25 02:49:35;;;;;;;;;;;17.80;51.60;;;;;;5109111;28;19951;-72
2023/03/25 02:52:07;;;;;;;;;;;17.80;51.70;;;;;;5108806;28;19920;-72
2023/03/25 02:54:33;;;;;;;;;;;17.80;51.60;;;;;;5109339;28;19920;-72
2023/03/25 02:56:59;;;;;;;;;;;17.80;51.70;;;;;;5108710;28;19959;-71
2023/03/25 02:59:28;;;;;;;;;;;17.70;51.60;;;;;;5109184;28;19963;-78
2023/03/25 03:01:57;;;;;;;;;;;17.80;51.70;;;;;;5108597;28;20398;-72
2023/03/25 03:04:24;;;;;;;;;;;17.80;51.70;;;;;;5108509;28;19949;-71
2023/03/25 03:06:49;;;;;;;;;;;17.70;51.70;;;;;;5109933;28;19920;-72
2023/03/25 03:09:21;;;;;;;;;;;17.70;51.70;;;;;;5108761;28;20409;-72
2023/03/25 03:14:52;;;;;;;;;;;17.70;51.70;;;;;;5130719;27;20430;-70
2023/03/25 03:20:05;;;;;;;;;;;17.70;51.70;;;;;;5110291;27;19912;-75
2023/03/25 03:22:51;;;;;;;;;;;17.70;51.70;;;;;;5109001;28;19926;-72
2023/03/25 03:25:26;;;;;;;;;;;17.70;51.70;;;;;;5109404;28;19920;-71
2023/03/25 03:27:55;;;;;;;;;;;17.70;51.70;;;;;;5108776;28;19920;-71
2023/03/25 03:30:23;;;;;;;;;;;17.60;51.70;;;;;;5108837;28;20398;-71
2023/03/25 03:33:12;;;;;;;;;;;17.60;51.70;;;;;;5108820;28;19920;-71
2023/03/25 03:35:48;;;;;;;;;;;17.60;51.70;;;;;;5108662;28;19920;-71
2023/03/25 03:38:15;;;;;;;;;;;17.70;51.80;;;;;;5108747;28;19924;-72
2023/03/25 03:40:43;;;;;;;;;;;17.60;51.80;;;;;;5109925;28;19924;-71
2023/03/25 03:43:15;;;;;;;;;;;17.60;51.70;;;;;;5108867;28;20001;-72
2023/03/25 03:45:43;;;;;;;;;;;17.60;51.80;;;;;;5109780;28;19924;-71
2023/03/25 03:48:11;;;;;;;;;;;17.60;51.70;;;;;;5108778;28;19965;-71
2023/03/25 03:50:39;;;;;;;;;;;17.60;52.50;;;;;;5108360;28;20371;-73
2023/03/25 03:53:10;;;;;;;;;;;17.60;51.70;;;;;;5143242;27;19920;-71
2023/03/25 03:55:53;;;;;;;;;;;17.60;51.80;;;;;;5108274;28;19920;-70
2023/03/25 03:58:22;;;;;;;;;;;17.60;51.80;;;;;;5108220;28;20451;-71
2023/03/25 04:01:02;;;;;;;;;;;17.60;51.80;;;;;;5108157;28;20371;-71
2023/03/25 04:03:33;;;;;;;;;;;17.50;51.70;;;;;;5108496;28;19943;-71
2023/03/25 04:06:06;;;;;;;;;;;17.60;51.80;;;;;;5108126;28;19920;-71
2023/03/25 04:08:35;;;;;;;;;;;17.60;51.80;;;;;;5109366;28;20371;-72
2023/03/25 04:11:07;;;;;;;;;;;17.60;51.80;;;;;;5108493;28;20282;-71
2023/03/25 04:13:35;;;;;;;;;;;17.50;51.80;;;;;;5108014;28;19920;-71
2023/03/25 04:16:01;;;;;;;;;;;17.50;51.70;;;;;;5108067;28;19931;-73
2023/03/25 04:18:27;;;;;;;;;;;17.50;52.50;;;;;;5116826;28;19924;-71
2023/03/25 04:20:53;;;;;;;;;;;17.50;51.70;;;;;;5111420;28;19973;-72
2023/03/25 04:23:20;;;;;;;;;;;17.50;51.70;;;;;;5111474;28;19926;-71
2023/03/25 04:25:48;;;;;;;;;;;17.50;51.70;;;;;;5111398;28;19996;-71
2023/03/25 04:28:16;;;;;;;;;;;17.50;51.70;;;;;;5111172;28;20440;-72
2023/03/25 04:30:44;;;;;;;;;;;17.50;51.70;;;;;;5100726;28;19919;-71
2023/03/25 04:33:10;;;;;;;;;;;17.50;51.80;;;;;;5097779;28;19962;-71
2023/03/25 04:35:36;;;;;;;;;;;17.50;51.80;;;;;;5115483;28;20390;-71
2023/03/25 04:38:02;;;;;;;;;;;17.40;51.70;;;;;;5131604;27;19931;-70
2023/03/25 04:40:28;;;;;;;;;;;17.50;51.80;;;;;;5097612;28;19919;-70
2023/03/25 04:42:55;;;;;;;;;;;17.50;51.80;;;;;;5115687;28;20371;-70
2023/03/25 04:45:21;;;;;;;;;;;17.50;51.80;;;;;;5097168;28;19931;-71
2023/03/25 04:47:47;;;;;;;;;;;17.50;51.90;;;;;;5131621;27;19920;-71
2023/03/25 04:50:16;;;;;;;;;;;17.50;51.90;;;;;;5115297;28;19945;-71
2023/03/25 04:52:42;;;;;;;;;;;17.40;51.80;;;;;;5097265;28;19926;-71
2023/03/25 04:55:08;;;;;;;;;;;17.40;51.90;;;;;;5097021;28;20325;-70
2023/03/25 04:57:34;;;;;;;;;;;17.40;51.80;;;;;;5097187;28;20014;-70
2023/03/25 04:59:59;;;;;;;;;;;17.40;51.80;;;;;;5115244;28;20030;-71
2023/03/25 05:02:25;;;;;;;;;;;17.40;51.90;;;;;;5096725;28;19920;-71
2023/03/25 05:04:52;;;;;;;;;;;17.40;51.80;;;;;;5097111;28;20006;-71
2023/03/25 05:07:18;;;;;;;;;;;17.40;51.90;;;;;;5096705;28;19966;-71
2023/03/25 05:09:43;;;;;;;;;;;17.40;51.90;;;;;;5115152;28;19975;-71
2023/03/25 05:12:10;;;;;;;;;;;17.40;51.90;;;;;;5096683;28;19998;-71
2023/03/25 05:14:35;;;;;;;;;;;17.40;51.90;;;;;;5115044;28;19920;-70
2023/03/25 05:17:01;;;;;;;;;;;17.40;51.90;;;;;;5096482;28;20435;-71
2023/03/25 05:19:27;;;;;;;;;;;17.40;51.90;;;;;;5092808;28;19925;-71
2023/03/25 05:21:55;;;;;;;;;;;17.40;51.90;;;;;;5093493;28;20346;-71
2023/03/25 05:24:20;;;;;;;;;;;17.30;51.90;;;;;;5093266;28;19969;-71
2023/03/25 05:26:46;;;;;;;;;;;17.30;51.90;;;;;;5093157;28;20379;-71
2023/03/25 05:29:13;;;;;;;;;;;17.40;51.90;;;;;;5092971;28;19920;-72
2023/03/25 05:31:44;;;;;;;;;;;17.30;51.90;;;;;;5094214;28;19927;-72
2023/03/25 05:34:09;;;;;;;;;;;17.30;51.90;;;;;;5093450;28;19986;-72
2023/03/25 05:36:35;;;;;;;;;;;17.30;51.90;;;;;;5092709;28;20391;-72
2023/03/25 05:39:00;;;;;;;;;;;17.30;51.90;;;;;;5092488;28;19936;-73
2023/03/25 05:41:37;;;;;;;;;;;17.30;51.90;;;;;;5092011;28;19978;-73
2023/03/25 05:44:04;;;;;;;;;;;17.30;51.90;;;;;;5092613;28;19920;-72
2023/03/25 05:46:29;;;;;;;;;;;17.30;51.90;;;;;;5093867;28;19920;-74
2023/03/25 05:48:56;;;;;;;;;;;17.30;51.90;;;;;;5092396;28;20505;-73
2023/03/25 05:51:22;;;;;;;;;;;17.30;51.90;;;;;;5092828;28;19923;-72
2023/03/25 05:53:48;;;;;;;;;;;17.20;51.90;;;;;;5092748;28;19920;-72
2023/03/25 05:56:16;;;;;;;;;;;17.20;51.90;;;;;;5092424;28;19920;-72
2023/03/25 05:58:42;;;;;;;;;;;17.30;52.00;;;;;;5093483;28;19924;-72
2023/03/25 06:01:09;;;;;;;;;;;17.30;52.00;;;;;;5093703;28;19927;-72
2023/03/25 06:03:34;;;;;;;;;;;17.20;52.00;;;;;;5092414;28;19920;-72
2023/03/25 06:06:00;;;;;;;;;;;17.20;52.00;;;;;;5093426;28;20276;-72
2023/03/25 06:08:28;;;;;;;;;;;17.20;52.10;;;;;;5092447;28;20387;-72
2023/03/25 06:10:57;;;;;;;;;;;17.20;52.00;;;;;;5092136;28;19920;-71
2023/03/25 06:13:23;;;;;;;;;;;17.20;52.00;;;;;;5092003;28;19927;-72
2023/03/25 06:15:54;;;;;;;;;;;17.20;52.10;;;;;;5093371;28;19920;-71
2023/03/25 06:18:25;;;;;;;;;;;17.20;52.10;;;;;;5091659;28;19932;-71
2023/03/25 06:20:52;;;;;;;;;;;17.20;52.10;;;;;;5093278;28;19931;-72
2023/03/25 06:23:19;;;;;;;;;;;17.20;52.10;;;;;;5092148;28;19965;-72
2023/03/25 06:25:44;;;;;;;;;;;17.20;52.10;;;;;;5092151;28;19924;-71
2023/03/25 06:28:10;;;;;;;;;;;17.20;52.10;;;;;;5092077;28;20294;-72
2023/03/25 06:30:35;;;;;;;;;;;17.10;52.10;;;;;;5126150;27;20016;-71
2023/03/25 06:33:01;;;;;;;;;;;17.10;52.10;;;;;;5093025;28;20375;-72
2023/03/25 06:35:27;;;;;;;;;;;17.10;52.10;;;;;;5091621;28;19920;-71
2023/03/25 06:37:53;;;;;;;;;;;17.10;52.10;;;;;;5092955;28;19928;-71
2023/03/25 06:40:19;;;;;;;;;;;17.10;52.10;;;;;;5092879;28;19920;-72
2023/03/25 06:42:44;;;;;;;;;;;17.10;52.10;;;;;;5091904;28;19931;-71
2023/03/25 06:45:11;;;;;;;;;;;17.10;52.10;;;;;;5091789;28;20198;-71
2023/03/25 06:47:37;;;;;;;;;;;17.10;52.10;;;;;;5091572;28;19974;-72
2023/03/25 06:50:06;;;;;;;;;;;17.10;52.10;;;;;;5091355;28;19964;-72
2023/03/25 06:52:31;;;;;;;;;;;17.10;52.10;;;;;;5091265;28;19920;-71
2023/03/25 06:54:57;;;;;;;;;;;17.10;52.10;;;;;;5091697;28;19966;-71
2023/03/25 06:57:22;;;;;;;;;;;17.10;52.10;;;;;;5091416;28;19920;-72
2023/03/25 06:59:48;;;;;;;;;;;17.10;52.10;;;;;;5091220;28;19924;-72
2023/03/25 07:02:14;;;;;;;;;;;17.10;52.10;;;;;;5092655;28;20208;-71
2023/03/25 07:04:40;;;;;;;;;;;17.00;52.00;;;;;;5091533;28;19935;-71
2023/03/25 07:07:06;;;;;;;;;;;17.10;52.10;;;;;;5091281;28;19924;-72
2023/03/25 07:09:32;;;;;;;;;;;17.10;52.00;;;;;;5091550;28;19919;-72
2023/03/25 07:11:58;;;;;;;;;;;17.10;52.10;;;;;;5091649;28;19931;-71
2023/03/25 07:14:23;;;;;;;;;;;17.10;52.10;;;;;;5092524;28;20351;-71
2023/03/25 07:16:51;;;;;;;;;;;17.10;52.00;;;;;;5092491;28;19920;-72
2023/03/25 07:19:17;;;;;;;;;;;17.10;52.10;;;;;;5090864;28;19924;-72
2023/03/25 07:21:42;;;;;;;;;;;17.10;52.00;;;;;;5091074;28;19927;-71
2023/03/25 07:24:08;;;;;;;;;;;17.10;52.10;;;;;;5091085;28;20287;-73
2023/03/25 07:26:36;;;;;;;;;;;17.10;52.10;;;;;;5091037;28;19973;-71
2023/03/25 07:29:02;;;;;;;;;;;17.10;52.00;;;;;;5091077;28;20375;-71
2023/03/25 07:31:28;;;;;;;;;;;17.10;52.00;;;;;;5091336;28;19999;-71
2023/03/25 07:33:54;;;;;;;;;;;17.10;52.10;;;;;;5091313;28;20336;-71
2023/03/25 07:36:20;;;;;;;;;;;17.10;52.00;;;;;;5090860;28;19924;-71
2023/03/25 07:38:46;;;;;;;;;;;17.10;52.00;;;;;;5090928;28;20387;-71
2023/03/25 07:41:12;;;;;;;;;;;17.10;52.00;;;;;;5090895;28;19920;-70
2023/03/25 07:43:38;;;;;;;;;;;17.10;52.00;;;;;;5091275;28;20011;-71
2023/03/25 07:46:06;;;;;;;;;;;17.10;52.00;;;;;;5091154;28;19965;-71
2023/03/25 07:48:32;;;;;;;;;;;17.00;52.00;;;;;;5090812;28;19921;-71
2023/03/25 07:50:57;;;;;;;;;;;17.00;52.00;;;;;;5125175;28;19920;-71
2023/03/25 07:53:23;;;;;;;;;;;17.00;52.00;;;;;;5090990;28;19920;-71
2023/03/25 07:55:50;;;;;;;;;;;17.00;52.00;;;;;;5092192;28;19920;-71
2023/03/25 07:58:16;;;;;;;;;;;17.00;52.00;;;;;;5090848;28;20015;-71
2023/03/25 08:00:42;;;;;;;;;;;17.00;52.00;;;;;;5092218;28;20113;-71
2023/03/25 08:03:09;;;;;;;;;;;17.00;52.00;;;;;;5091931;28;20113;-71
2023/03/25 08:05:36;;;;;;;;;;;17.00;52.00;;;;;;5092570;28;19998;-71
2023/03/25 08:08:03;;;;;;;;;;;17.00;52.10;;;;;;5094756;28;19923;-71
2023/03/25 08:10:28;;;;;;;;;;;17.00;52.10;;;;;;5094479;28;20364;-70
2023/03/25 08:12:54;;;;;;;;;;;17.00;52.00;;;;;;5128879;27;19927;-71
2023/03/25 08:15:23;;;;;;;;;;;17.00;52.00;;;;;;5094652;28;20383;-70
2023/03/25 08:17:49;;;;;;;;;;;17.00;52.00;;;;;;5097947;28;19924;-70
2023/03/25 08:20:14;;;;;;;;;;;17.00;52.00;;;;;;5115882;28;19923;-71
2023/03/25 08:22:42;;;;;;;;;;;17.00;52.80;;;;;;5131692;27;20337;-71
2023/03/25 08:25:08;;;;;;;;;;;17.00;52.00;;;;;;5097592;28;20002;-70
2023/03/25 08:27:33;;;;;;;;;;;17.00;52.00;;;;;;5097860;28;20015;-70
2023/03/25 08:29:59;;;;;;;;;;;17.00;52.00;;;;;;5097817;28;20397;-71
2023/03/25 08:32:26;;;;;;;;;;;17.00;52.10;;;;;;5097440;28;20420;-71
2023/03/25 08:34:51;;;;;;;;;;;17.00;52.00;;;;;;5131748;27;19926;-71
2023/03/25 08:37:17;;;;;;;;;;;17.00;52.00;;;;;;5115620;28;20010;-70
2023/03/25 08:39:43;;;;;;;;;;;17.00;52.00;;;;;;5097243;28;19919;-71
2023/03/25 08:42:14;;;;;;;;;;;17.00;52.00;;;;;;5115788;28;19923;-71
2023/03/25 08:44:40;;;;;;;;;;;17.00;52.00;;;;;;5097597;28;20015;-71
2023/03/25 08:47:06;;;;;;;;;;;17.00;52.00;;;;;;5097227;28;20428;-71
2023/03/25 08:49:31;;;;;;;;;;;16.90;52.00;;;;;;5115333;28;19920;-71
2023/03/25 08:51:59;;;;;;;;;;;17.00;52.00;;;;;;5097373;28;19924;-71
2023/03/25 08:54:24;;;;;;;;;;;16.90;52.00;;;;;;5115240;28;19927;-70
2023/03/25 08:56:50;;;;;;;;;;;16.90;52.00;;;;;;5097013;28;19924;-71
2023/03/25 08:59:16;;;;;;;;;;;17.00;52.10;;;;;;5115068;28;19942;-71
2023/03/25 09:01:42;;;;;;;;;;;16.90;52.00;;;;;;5096889;28;19959;-71
2023/03/25 09:04:08;;;;;;;;;;;16.90;52.00;;;;;;5096823;28;19931;-71
2023/03/25 09:06:33;;;;;;;;;;;16.90;52.00;;;;;;5096839;28;19919;-71
2023/03/25 09:09:04;;;;;;;;;;;16.90;52.00;;;;;;5096705;28;19926;-71
2023/03/25 09:11:30;;;;;;;;;;;16.90;52.00;;;;;;5096978;28;19920;-70
2023/03/25 09:13:56;;;;;;;;;;;16.90;52.10;;;;;;5096635;28;19973;-70
2023/03/25 09:16:21;;;;;;;;;;;16.90;52.00;;;;;;5096497;28;19924;-70
2023/03/25 09:18:47;;;;;;;;;;;16.90;52.00;;;;;;5096281;28;19923;-71
2023/03/25 09:21:12;;;;;;;;;;;16.90;52.10;;;;;;5096604;28;19920;-71
2023/03/25 09:23:38;;;;;;;;;;;16.90;52.10;;;;;;5114788;28;20035;-71
2023/03/25 09:26:04;;;;;;;;;;;16.90;52.10;;;;;;5114560;28;19921;-71
2023/03/25 09:28:30;;;;;;;;;;;16.90;52.10;;;;;;5096418;28;20410;-72
2023/03/25 09:30:55;;;;;;;;;;;16.90;52.10;;;;;;5114532;28;19981;-71
2023/03/25 09:33:26;;;;;;;;;;;16.90;52.00;;;;;;5096559;28;20014;-71
2023/03/25 09:35:51;;;;;;;;;;;16.90;52.00;;;;;;5096382;28;19923;-72
2023/03/25 09:38:17;;;;;;;;;;;17.00;52.10;;;;;;5096344;28;19927;-70
2023/03/25 09:40:43;;;;;;;;;;;16.90;52.00;;;;;;5096105;28;19920;-70
2023/03/25 09:43:29;;;;;;;;;;;16.80;52.00;;;;;;5114487;28;20494;-70
2023/03/25 09:45:55;;;;;;;;;;;17.00;52.10;;;;;;5096113;28;20386;-71
2023/03/25 09:51:11;;;;;;;;;;;16.90;52.10;;;;;;5110234;27;19912;-71
2023/03/25 09:53:42;;;;;;;;;;;16.90;52.00;;;;;;5109218;28;19981;-71
2023/03/25 09:56:14;;;;;;;;;;;16.90;52.10;;;;;;5108836;28;20003;-71
2023/03/25 09:58:41;;;;;;;;;;;16.90;52.10;;;;;;5108853;28;19927;-71
2023/03/25 10:01:27;;;;;;;;;;;16.90;52.10;;;;;;5109096;28;19920;-71
2023/03/25 10:06:39;;;;;;;;;;;16.90;52.10;;;;;;5110304;27;19916;-70
2023/03/25 10:11:54;;;;;;;;;;;16.90;52.10;;;;;;5124054;27;19923;-68
2023/03/25 10:14:25;;;;;;;;;;;16.90;52.20;;;;;;5095035;28;19972;-68
2023/03/25 10:16:57;;;;;;;;;;;16.90;52.80;;;;;;5087551;28;19934;-68
2023/03/25 10:19:42;;;;;;;;;;;16.90;53.10;;;;;;5087806;28;19920;-69
2023/03/25 10:22:15;;;;;;;;;;;16.90;53.60;;;;;;5087388;28;19920;-68
2023/03/25 10:24:45;;;;;;;;;;;17.00;53.90;;;;;;5088602;28;19931;-68
2023/03/25 10:27:22;;;;;;;;;;;17.00;54.00;;;;;;5088353;28;20310;-70
2023/03/25 10:29:52;;;;;;;;;;;17.10;54.10;;;;;;5088174;28;19928;-68
2023/03/25 10:32:24;;;;;;;;;;;17.10;54.00;;;;;;5087874;28;19966;-73
2023/03/25 10:34:51;;;;;;;;;;;17.10;54.10;;;;;;5088170;28;20215;-74
2023/03/25 10:37:27;;;;;;;;;;;17.10;53.70;;;;;;5082118;28;19921;-69
2023/03/25 10:39:57;;;;;;;;;;;17.10;53.70;;;;;;5087867;28;20015;-69
2023/03/25 10:42:33;;;;;;;;;;;17.10;53.90;;;;;;5087520;28;19927;-71
2023/03/25 10:44:59;;;;;;;;;;;17.10;54.00;;;;;;5087321;28;20295;-68
2023/03/25 10:47:28;;;;;;;;;;;17.10;53.90;;;;;;5102340;28;19920;-68
2023/03/25 10:49:54;;;;;;;;;;;17.10;54.00;;;;;;5099828;28;19924;-68
2023/03/25 10:52:19;;;;;;;;;;;17.20;53.80;;;;;;5107361;28;19920;-71
2023/03/25 10:54:47;;;;;;;;;;;17.20;53.60;;;;;;5109564;28;19926;-72
2023/03/25 10:57:17;;;;;;;;;;;17.20;53.70;;;;;;5108187;28;19932;-72
2023/03/25 10:59:48;;;;;;;;;;;17.20;53.60;;;;;;5108360;28;19920;-72
2023/03/25 11:02:19;;;;;;;;;;;17.10;53.60;;;;;;5091539;28;20267;-71
2023/03/25 11:04:46;;;;;;;;;;;17.10;53.50;;;;;;5107951;28;19920;-71
2023/03/25 11:07:18;;;;;;;;;;;17.10;53.50;;;;;;5108028;28;20015;-72
2023/03/25 11:09:43;;;;;;;;;;;17.10;53.40;;;;;;5107777;28;19947;-71
2023/03/25 11:12:09;;;;;;;;;;;17.10;53.50;;;;;;5107892;28;20379;-72
2023/03/25 11:14:37;;;;;;;;;;;17.00;53.30;;;;;;5107964;28;19920;-71
2023/03/25 11:17:08;;;;;;;;;;;17.10;53.40;;;;;;5107774;28;19920;-71
2023/03/25 11:19:53;;;;;;;;;;;17.00;53.40;;;;;;5107698;28;19924;-72
2023/03/25 11:22:25;;;;;;;;;;;17.00;53.30;;;;;;5098786;28;19920;-72
2023/03/25 11:24:56;;;;;;;;;;;17.00;53.30;;;;;;5095294;28;19924;-71
2023/03/25 11:27:25;;;;;;;;;;;17.00;53.30;;;;;;5094032;28;19966;-72
2023/03/25 11:29:52;;;;;;;;;;;17.00;53.20;;;;;;5093925;28;19935;-71
2023/03/25 11:32:21;;;;;;;;;;;17.00;53.20;;;;;;5094231;28;19963;-71
2023/03/25 11:34:49;;;;;;;;;;;17.00;53.20;;;;;;5095132;28;19946;-73
2023/03/25 11:37:16;;;;;;;;;;;17.00;53.10;;;;;;5094128;28;20339;-72
2023/03/25 11:39:47;;;;;;;;;;;17.00;53.10;;;;;;5094026;28;19970;-72
2023/03/25 11:44:54;;;;;;;;;;;17.00;53.00;;;;;;5089752;28;20394;-72
2023/03/25 11:47:24;;;;;;;;;;;16.90;52.90;;;;;;5088868;28;20426;-72
2023/03/25 11:49:51;;;;;;;;;;;17.00;52.90;;;;;;5088471;28;19947;-71
2023/03/25 11:52:19;;;;;;;;;;;17.00;52.80;;;;;;5088767;28;19921;-71
2023/03/25 11:54:45;;;;;;;;;;;17.00;52.80;;;;;;5088772;28;19998;-71
2023/03/25 11:57:27;;;;;;;;;;;17.00;52.80;;;;;;5105391;28;19928;-71
2023/03/25 12:00:05;;;;;;;;;;;17.00;52.80;;;;;;5088675;28;19925;-72
2023/03/25 12:02:39;;;;;;;;;;;17.00;52.70;;;;;;5088330;28;19963;-72
2023/03/25 12:07:58;;;;;;;;;;;17.00;52.70;;;;;;5130760;27;20006;-72
2023/03/25 12:10:35;;;;;;;;;;;17.00;52.70;;;;;;5129410;28;19924;-72
2023/03/25 12:13:08;;;;;;;;;;;17.00;52.60;;;;;;5129716;28;19926;-72
2023/03/25 12:18:47;;;;;;;;;;;16.90;52.60;;;;;;5110253;27;19912;-71
2023/03/25 12:24:06;;;;;;;;;;;16.90;52.50;;;;;;5109788;27;19918;-71
2023/03/25 12:26:48;;;;;;;;;;;17.00;52.50;;;;;;5108872;28;19920;-73
2023/03/25 12:32:13;;;;;;;;;;;17.00;52.50;;;;;;5110225;27;19919;-71
2023/03/25 12:34:48;;;;;;;;;;;16.90;52.30;;;;;;5110103;28;19920;-72
2023/03/25 12:37:33;;;;;;;;;;;16.90;52.30;;;;;;5108827;28;19932;-71
2023/03/25 12:42:47;;;;;;;;;;;16.90;52.20;;;;;;5089785;28;19922;-72
2023/03/25 12:45:32;;;;;;;;;;;16.90;52.30;;;;;;5088725;28;20211;-72
2023/03/25 12:48:01;;;;;;;;;;;16.90;52.20;;;;;;5089663;28;20340;-72
2023/03/25 12:53:32;;;;;;;;;;;16.90;52.20;;;;;;5089724;28;19916;-72
2023/03/25 12:58:45;;;;;;;;;;;16.90;52.20;;;;;;5090103;28;19919;-72
2023/03/25 13:06:45;;;;;;;;;;;16.90;52.10;;;;;;5110261;27;20278;-72
2023/03/25 13:09:14;;;;;;;;;;;16.90;52.10;;;;;;5109163;28;19973;-72
2023/03/25 13:11:44;;;;;;;;;;;16.90;52.10;;;;;;5108936;28;20007;-72
2023/03/25 13:14:17;;;;;;;;;;;16.90;52.10;;;;;;5109994;28;20295;-72
2023/03/25 13:16:44;;;;;;;;;;;16.90;52.00;;;;;;5109106;28;19930;-72
2023/03/25 13:19:12;;;;;;;;;;;16.90;52.00;;;;;;5109025;28;19945;-72
2023/03/25 13:21:40;;;;;;;;;;;16.90;52.00;;;;;;5110178;28;20317;-73
2023/03/25 13:24:11;;;;;;;;;;;16.90;52.00;;;;;;5108856;28;19924;-73
2023/03/25 13:26:39;;;;;;;;;;;16.90;52.00;;;;;;5108701;28;19963;-72
2023/03/25 13:29:05;;;;;;;;;;;16.90;51.90;;;;;;5109696;28;19927;-73
2023/03/25 13:31:34;;;;;;;;;;;16.90;52.60;;;;;;5109908;28;19927;-73
2023/03/25 13:36:58;;;;;;;;;;;16.90;51.80;;;;;;5110295;27;19912;-72
2023/03/25 13:39:31;;;;;;;;;;;16.90;51.80;;;;;;5109141;28;20058;-72
2023/03/25 13:42:05;;;;;;;;;;;17.00;51.90;;;;;;5108918;28;19926;-73
2023/03/25 13:44:34;;;;;;;;;;;16.90;51.80;;;;;;5109118;28;19920;-73
2023/03/25 13:47:02;;;;;;;;;;;16.90;51.70;;;;;;5109082;28;19971;-73
2023/03/25 13:49:31;;;;;;;;;;;16.90;51.70;;;;;;5108971;28;20026;-72
2023/03/25 13:51:57;;;;;;;;;;;16.90;51.70;;;;;;5108932;28;19920;-72
2023/03/25 13:54:25;;;;;;;;;;;17.00;51.70;;;;;;5108566;28;19924;-72
2023/03/25 13:57:11;;;;;;;;;;;16.90;51.70;;;;;;5108952;28;20284;-73
2023/03/25 13:59:56;;;;;;;;;;;16.90;51.60;;;;;;5109539;28;19926;-73
2023/03/25 14:05:29;;;;;;;;;;;16.90;51.60;;;;;;5089843;28;20402;-73
2023/03/25 14:10:52;;;;;;;;;;;16.90;51.60;;;;;;5110209;27;19912;-73
2023/03/25 14:13:22;;;;;;;;;;;16.90;51.60;;;;;;5110154;28;20298;-73
2023/03/25 14:15:56;;;;;;;;;;;16.90;52.40;;;;;;5109344;28;19966;-72
2023/03/25 14:18:22;;;;;;;;;;;16.90;51.50;;;;;;5108872;28;19920;-72
2023/03/25 14:20:48;;;;;;;;;;;16.90;51.50;;;;;;5109245;28;19920;-73
2023/03/25 14:23:17;;;;;;;;;;;16.90;51.50;;;;;;5109186;28;19924;-73
2023/03/25 14:25:45;;;;;;;;;;;16.90;51.50;;;;;;5108583;28;19920;-73
2023/03/25 14:28:15;;;;;;;;;;;16.90;51.50;;;;;;5108718;28;20379;-73
2023/03/25 14:30:42;;;;;;;;;;;16.90;51.50;;;;;;5108575;28;19920;-73
2023/03/25 14:33:09;;;;;;;;;;;16.90;51.50;;;;;;5108573;28;19924;-73
2023/03/25 14:40:58;;;;;;;;;;;16.80;51.50;;;;;;5110602;27;19912;-72
2023/03/25 14:43:25;;;;;;;;;;;16.90;51.60;;;;;;5109255;28;20291;-71
2023/03/25 14:48:36;;;;;;;;;;;16.80;52.40;;;;;;5110287;27;19912;-71
2023/03/25 14:51:07;;;;;;;;;;;16.80;51.70;;;;;;5108878;28;20424;-71
2023/03/25 14:53:32;;;;;;;;;;;16.80;51.80;;;;;;5143407;27;19920;-71
2023/03/25 14:55:59;;;;;;;;;;;16.80;51.80;;;;;;5109145;28;19965;-72
2023/03/25 14:58:26;;;;;;;;;;;16.70;51.70;;;;;;5108807;28;20006;-71
2023/03/25 15:00:54;;;;;;;;;;;16.70;51.80;;;;;;5108670;28;19920;-72
2023/03/25 15:03:21;;;;;;;;;;;16.70;51.80;;;;;;5108760;28;19920;-72
2023/03/25 15:05:55;;;;;;;;;;;16.80;52.00;;;;;;5108927;28;19935;-72
2023/03/25 15:08:38;;;;;;;;;;;16.80;52.00;;;;;;5108657;28;19936;-72
2023/03/25 15:13:51;;;;;;;;;;;16.70;52.00;;;;;;5110360;27;20327;-72
2023/03/25 15:16:26;;;;;;;;;;;16.70;52.00;;;;;;5109245;28;19928;-71
2023/03/25 15:21:54;;;;;;;;;;;16.70;52.10;;;;;;5130762;27;20030;-72
2023/03/25 15:24:25;;;;;;;;;;;16.60;52.10;;;;;;5129569;28;20014;-71
2023/03/25 15:26:52;;;;;;;;;;;16.70;52.20;;;;;;5129430;28;19920;-72
2023/03/25 15:29:37;;;;;;;;;;;16.60;52.10;;;;;;5129358;28;19953;-71
2023/03/25 15:32:23;;;;;;;;;;;16.60;52.10;;;;;;5129289;28;19920;-71
2023/03/25 15:37:39;;;;;;;;;;;16.60;52.20;;;;;;5081805;28;19939;-71
2023/03/25 15:40:25;;;;;;;;;;;16.60;52.20;;;;;;5069654;28;19970;-70
2023/03/25 15:45:55;;;;;;;;;;;16.60;52.30;;;;;;5110196;27;20283;-72